createdAt,value
2023-05-21T00:01:16.564Z,12.15
2023-05-21T00:04:06.220Z,13.83
2023-05-21T00:06:54.230Z,12.05
2023-05-21T00:09:42.450Z,11.80
2023-05-21T00:12:32.311Z,12.40
2023-05-21T00:15:20.349Z,14.68
2023-05-21T00:18:08.592Z,11.07
2023-05-21T00:20:57.841Z,10.85
2023-05-21T00:23:48.216Z,12.80
2023-05-21T00:26:36.755Z,11.07
2023-05-21T00:29:27.715Z,13.68
2023-05-21T00:32:15.879Z,12.23
2023-05-21T00:35:04.026Z,11.57
2023-05-21T00:37:52.103Z,10.98
2023-05-21T00:40:41.289Z,12.07
2023-05-21T00:43:29.417Z,12.45
2023-05-21T00:46:20.956Z,9.97
2023-05-21T00:49:09.253Z,12.35
2023-05-21T00:51:57.705Z,13.52
2023-05-21T00:54:45.941Z,11.63
2023-05-21T00:57:37.146Z,12.55
2023-05-21T01:00:26.535Z,12.50
2023-05-21T01:03:16.415Z,12.98
2023-05-21T01:06:06.055Z,12.25
2023-05-21T01:08:56.230Z,11.80
2023-05-21T01:11:47.735Z,12.05
2023-05-21T01:14:37.625Z,12.07
2023-05-21T01:17:26.675Z,11.60
2023-05-21T01:20:18.207Z,12.05
2023-05-21T01:23:07.835Z,13.02
2023-05-21T01:25:56.251Z,13.00
2023-05-21T01:28:44.294Z,11.57
2023-05-21T01:31:38.715Z,12.40
2023-05-21T01:34:31.468Z,12.65
2023-05-21T01:37:27.819Z,11.07
2023-05-21T01:40:21.997Z,11.90
2023-05-21T01:43:11.409Z,13.33
2023-05-21T01:46:00.985Z,11.93
2023-05-21T01:48:51.675Z,14.02
2023-05-21T01:51:40.210Z,9.77
2023-05-21T01:54:28.267Z,11.63
2023-05-21T01:57:18.482Z,13.13
2023-05-21T02:00:09.091Z,11.77
2023-05-21T02:02:58.753Z,14.43
2023-05-21T02:05:47.200Z,14.77
2023-05-21T02:08:35.313Z,13.10
2023-05-21T02:11:23.418Z,12.13
2023-05-21T02:14:14.121Z,13.07
2023-05-21T02:17:02.276Z,13.38
2023-05-21T02:19:50.352Z,12.15
2023-05-21T02:22:39.394Z,12.07
2023-05-21T02:25:27.536Z,10.53
2023-05-21T02:28:15.920Z,12.57
2023-05-21T02:31:05.439Z,12.63
2023-05-21T02:33:53.513Z,12.48
2023-05-21T02:36:41.795Z,13.02
2023-05-21T02:39:29.855Z,12.27
2023-05-21T02:42:17.956Z,14.48
2023-05-21T02:45:07.005Z,12.18
2023-05-21T02:47:56.435Z,11.55
2023-05-21T02:50:44.597Z,13.57
2023-05-21T02:53:32.621Z,13.40
2023-05-21T02:56:20.586Z,13.32
2023-05-21T02:59:08.702Z,13.05
2023-05-21T03:01:56.723Z,12.45
2023-05-21T03:04:47.021Z,13.00
2023-05-21T03:07:35.131Z,12.33
2023-05-21T03:10:23.167Z,13.95
2023-05-21T03:13:11.465Z,12.10
2023-05-21T03:15:59.554Z,12.98
2023-05-21T03:18:48.105Z,11.77
2023-05-21T03:21:37.574Z,12.67
2023-05-21T03:24:26.302Z,12.60
2023-05-21T03:27:14.252Z,11.23
2023-05-21T03:30:02.296Z,12.25
2023-05-21T03:32:51.418Z,11.90
2023-05-21T03:35:39.906Z,13.10
2023-05-21T03:38:29.342Z,11.93
2023-05-21T03:41:17.341Z,13.40
2023-05-21T03:44:05.937Z,11.52
2023-05-21T03:46:54.019Z,13.38
2023-05-21T03:49:42.007Z,13.87
2023-05-21T03:52:30.045Z,14.57
2023-05-21T03:55:19.562Z,14.45
2023-05-21T03:58:07.632Z,15.38
2023-05-21T04:00:55.698Z,13.43
2023-05-21T04:03:44.049Z,12.33
2023-05-21T04:06:32.333Z,13.38
2023-05-21T04:09:20.515Z,17.05
2023-05-21T04:12:09.939Z,14.27
2023-05-21T04:14:57.963Z,13.43
2023-05-21T04:17:46.873Z,11.33
2023-05-21T04:20:34.982Z,13.77
2023-05-21T04:23:23.818Z,12.52
2023-05-21T04:26:12.725Z,14.38
2023-05-21T04:29:03.635Z,12.75
2023-05-21T04:31:51.783Z,13.80
2023-05-21T04:34:39.892Z,14.68
2023-05-21T04:37:28.351Z,13.20
2023-05-21T04:40:18.448Z,14.02
2023-05-21T04:43:06.523Z,12.73
2023-05-21T04:45:56.041Z,13.33
2023-05-21T04:48:45.119Z,12.10
2023-05-21T04:51:33.327Z,15.32
2023-05-21T04:54:21.395Z,13.00
2023-05-21T04:57:09.899Z,12.25
2023-05-21T04:59:58.833Z,13.83
2023-05-21T05:02:48.320Z,13.23
2023-05-21T05:05:36.559Z,11.27
2023-05-21T05:08:24.690Z,12.45
2023-05-21T05:11:12.945Z,14.15
2023-05-21T05:14:01.051Z,11.13
2023-05-21T05:16:49.185Z,13.57
2023-05-21T05:19:38.590Z,12.85
2023-05-21T05:22:26.792Z,11.43
2023-05-21T05:25:17.894Z,12.52
2023-05-21T05:28:06.337Z,11.00
2023-05-21T05:30:54.675Z,11.15
2023-05-21T05:33:42.727Z,12.07
2023-05-21T05:36:32.403Z,13.25
2023-05-21T05:39:20.457Z,11.55
2023-05-21T05:42:08.493Z,11.87
2023-05-21T05:44:56.925Z,12.23
2023-05-21T05:47:45.100Z,11.73
2023-05-21T05:50:33.345Z,10.98
2023-05-21T05:53:22.878Z,11.27
2023-05-21T05:56:11.248Z,14.73
2023-05-21T05:58:59.755Z,11.55
2023-05-21T06:01:47.851Z,12.05
2023-05-21T06:04:35.881Z,11.27
2023-05-21T06:07:23.935Z,11.93
2023-05-21T06:10:13.260Z,11.57
2023-05-21T06:13:01.341Z,11.68
2023-05-21T06:15:49.620Z,11.55
2023-05-21T06:18:37.676Z,11.35
2023-05-21T06:21:25.684Z,10.07
2023-05-21T06:24:13.777Z,12.47
2023-05-21T06:27:04.070Z,11.43
2023-05-21T06:29:52.294Z,10.57
2023-05-21T06:32:40.462Z,11.45
2023-05-21T06:35:28.613Z,11.05
2023-05-21T06:38:16.684Z,10.50
2023-05-21T06:41:04.979Z,11.13
2023-05-21T06:43:54.392Z,11.48
2023-05-21T06:46:42.477Z,10.57
2023-05-21T06:49:30.517Z,12.48
2023-05-21T06:52:18.984Z,11.27
2023-05-21T06:55:07.433Z,11.50
2023-05-21T06:57:55.826Z,13.15
2023-05-21T07:00:45.575Z,12.35
2023-05-21T07:03:33.574Z,11.88
2023-05-21T07:06:22.272Z,13.50
2023-05-21T07:09:10.333Z,14.30
2023-05-21T07:11:58.420Z,13.10
2023-05-21T07:14:46.530Z,13.23
2023-05-21T07:17:36.041Z,12.23
2023-05-21T07:20:24.174Z,13.23
2023-05-21T07:23:12.222Z,13.38
2023-05-21T07:26:00.240Z,12.65
2023-05-21T07:28:48.291Z,13.63
2023-05-21T07:31:36.772Z,12.65
2023-05-21T07:34:26.844Z,11.43
2023-05-21T07:37:27.798Z,11.63
2023-05-21T07:40:15.968Z,12.50
2023-05-21T07:43:04.114Z,13.43
2023-05-21T07:45:52.364Z,12.57
2023-05-21T07:48:40.511Z,12.30
2023-05-21T07:51:30.188Z,11.18
2023-05-21T07:54:19.694Z,13.68
2023-05-21T07:57:07.785Z,11.30
2023-05-21T07:59:56.584Z,12.80
2023-05-21T08:02:44.882Z,11.73
2023-05-21T08:05:34.529Z,11.10
2023-05-21T08:08:24.465Z,10.88
2023-05-21T08:11:12.462Z,11.90
2023-05-21T08:14:00.681Z,12.30
2023-05-21T08:16:48.845Z,12.77
2023-05-21T08:19:36.957Z,11.48
2023-05-21T08:22:25.116Z,12.20
2023-05-21T08:25:14.704Z,10.82
2023-05-21T08:28:02.789Z,11.20
2023-05-21T08:30:50.922Z,11.30
2023-05-21T08:33:39.330Z,12.35
2023-05-21T08:36:27.356Z,10.63
2023-05-21T08:39:15.528Z,12.25
2023-05-21T08:42:14.307Z,11.77
2023-05-21T08:45:07.434Z,11.47
2023-05-21T08:47:57.924Z,11.75
2023-05-21T08:50:46.500Z,13.30
2023-05-21T08:53:35.529Z,11.20
2023-05-21T08:56:24.672Z,12.48
2023-05-21T08:59:14.984Z,11.40
2023-05-21T09:02:03.585Z,11.85
2023-05-21T09:04:57.200Z,10.75
2023-05-21T09:08:00.957Z,10.10
2023-05-21T09:10:51.215Z,10.00
2023-05-21T09:13:41.329Z,10.50
2023-05-21T09:16:30.871Z,10.18
2023-05-21T09:19:21.589Z,12.35
2023-05-21T09:22:09.706Z,10.68
2023-05-21T09:24:57.935Z,10.65
2023-05-21T09:27:46.159Z,9.83
2023-05-21T09:30:36.013Z,9.82
2023-05-21T09:33:30.607Z,11.68
2023-05-21T09:36:20.205Z,10.70
2023-05-21T09:39:08.352Z,9.18
2023-05-21T09:41:58.090Z,10.00
2023-05-21T09:44:46.270Z,9.50
2023-05-21T09:47:34.373Z,10.45
2023-05-21T09:50:25.682Z,9.18
2023-05-21T09:53:14.649Z,10.15
2023-05-21T09:56:03.662Z,8.67
2023-05-21T09:58:55.565Z,9.55
2023-05-21T10:01:44.206Z,9.32
2023-05-21T10:04:32.922Z,10.07
2023-05-21T10:07:25.939Z,11.60
2023-05-21T10:10:15.637Z,11.50
2023-05-21T10:13:06.997Z,10.55
2023-05-21T10:16:02.427Z,9.93
2023-05-21T10:18:54.174Z,9.93
2023-05-21T10:21:43.581Z,10.95
2023-05-21T10:24:34.596Z,8.77
2023-05-21T10:27:24.094Z,10.25
2023-05-21T10:30:13.252Z,10.38
2023-05-21T10:33:03.010Z,10.43
2023-05-21T10:35:53.269Z,8.85
2023-05-21T10:38:44.479Z,10.30
2023-05-21T10:41:42.944Z,10.80
2023-05-21T10:44:41.791Z,9.88
2023-05-21T10:47:48.994Z,9.93
2023-05-21T10:50:55.714Z,10.63
2023-05-21T10:53:54.500Z,9.90
2023-05-21T10:56:49.898Z,11.00
2023-05-21T10:59:43.462Z,11.70
2023-05-21T11:02:31.910Z,10.45
2023-05-21T11:05:40.169Z,9.73
2023-05-21T11:08:31.586Z,10.27
2023-05-21T11:11:43.472Z,9.20
2023-05-21T11:14:36.292Z,9.40
2023-05-21T11:17:38.728Z,10.80
2023-05-21T11:20:35.521Z,8.93
2023-05-21T11:23:24.768Z,11.63
2023-05-21T11:26:13.315Z,10.70
2023-05-21T11:29:09.494Z,8.38
2023-05-21T11:32:02.814Z,10.93
2023-05-21T11:34:51.680Z,12.05
2023-05-21T11:37:41.946Z,9.80
2023-05-21T11:40:31.079Z,9.77
2023-05-21T11:43:19.570Z,9.88
2023-05-21T11:46:07.750Z,10.95
2023-05-21T11:48:57.995Z,9.38
2023-05-21T11:51:46.249Z,10.13
2023-05-21T11:54:37.495Z,9.43
2023-05-21T11:57:30.544Z,8.77
2023-05-21T12:00:20.487Z,9.73
2023-05-21T12:03:12.971Z,10.07
2023-05-21T12:06:08.339Z,11.23
2023-05-21T12:08:58.493Z,11.70
2023-05-21T12:11:46.782Z,10.07
2023-05-21T12:14:35.276Z,9.57
2023-05-21T12:17:24.511Z,8.73
2023-05-21T12:20:16.563Z,10.27
2023-05-21T12:23:06.054Z,8.82
2023-05-21T12:25:54.484Z,8.95
2023-05-21T12:28:42.581Z,8.45
2023-05-21T12:31:32.911Z,10.00
2023-05-21T12:34:39.364Z,10.00
2023-05-21T12:37:31.258Z,10.38
2023-05-21T12:40:22.098Z,14.43
2023-05-21T12:43:10.474Z,10.40
2023-05-21T12:45:58.674Z,11.57
2023-05-21T12:48:51.564Z,10.83
2023-05-21T12:51:40.175Z,8.85
2023-05-21T12:54:35.977Z,13.45
2023-05-21T12:57:28.041Z,11.27
2023-05-21T13:00:16.173Z,10.80
2023-05-21T13:03:06.557Z,8.80
2023-05-21T13:05:59.699Z,8.13
2023-05-21T13:08:47.903Z,11.23
2023-05-21T13:11:35.914Z,9.68
2023-05-21T13:14:25.527Z,14.25
2023-05-21T13:17:13.534Z,12.17
2023-05-21T13:20:09.441Z,9.90
2023-05-21T13:22:57.973Z,10.32
2023-05-21T13:25:46.011Z,8.50
2023-05-21T13:28:34.063Z,11.30
2023-05-21T13:31:23.460Z,10.73
2023-05-21T13:34:12.168Z,8.95
2023-05-21T13:37:00.230Z,15.80
2023-05-21T13:39:48.451Z,12.02
2023-05-21T13:42:38.307Z,12.52
2023-05-21T13:45:29.103Z,9.00
2023-05-21T13:48:18.908Z,10.98
2023-05-21T13:51:07.147Z,10.07
2023-05-21T13:53:56.750Z,9.57
2023-05-21T13:56:45.031Z,9.43
2023-05-21T13:59:33.863Z,7.43
2023-05-21T14:02:22.067Z,11.15
2023-05-21T14:05:12.710Z,9.50
2023-05-21T14:08:01.660Z,7.50
2023-05-21T14:10:49.774Z,9.90
2023-05-21T14:13:37.772Z,9.73
2023-05-21T14:16:27.390Z,8.63
2023-05-21T14:19:15.837Z,9.00
2023-05-21T14:22:05.489Z,9.75
2023-05-21T14:24:53.709Z,9.10
2023-05-21T14:27:41.825Z,9.45
2023-05-21T14:30:29.874Z,11.07
2023-05-21T14:33:18.004Z,9.30
2023-05-21T14:36:06.881Z,7.95
2023-05-21T14:38:56.357Z,9.38
2023-05-21T14:41:44.435Z,12.00
2023-05-21T14:44:32.830Z,9.97
2023-05-21T14:47:20.903Z,10.23
2023-05-21T14:50:09.797Z,9.93
2023-05-21T14:52:57.794Z,10.90
2023-05-21T14:55:47.348Z,11.32
2023-05-21T14:58:35.535Z,11.00
2023-05-21T15:01:24.072Z,9.13
2023-05-21T15:04:12.228Z,9.65
2023-05-21T15:07:00.330Z,13.02
2023-05-21T15:09:48.347Z,9.18
2023-05-21T15:12:37.940Z,7.97
2023-05-21T15:15:26.557Z,10.30
2023-05-21T15:18:14.728Z,9.88
2023-05-21T15:21:03.018Z,8.20
2023-05-21T15:23:51.031Z,10.30
2023-05-21T15:26:39.150Z,9.37
2023-05-21T15:29:28.527Z,11.25
2023-05-21T15:32:16.720Z,9.07
2023-05-21T15:35:05.120Z,12.00
2023-05-21T15:37:53.299Z,10.70
2023-05-21T15:40:42.459Z,8.63
2023-05-21T15:43:30.605Z,9.98
2023-05-21T15:46:20.204Z,10.20
2023-05-21T15:49:08.549Z,9.15
2023-05-21T15:51:57.912Z,9.43
2023-05-21T15:54:45.922Z,8.00
2023-05-21T15:57:33.997Z,8.80
2023-05-21T16:00:22.076Z,12.10
2023-05-21T16:03:11.902Z,9.80
2023-05-21T16:06:00.088Z,9.75
2023-05-21T16:08:48.884Z,8.37
2023-05-21T16:11:37.198Z,8.98
2023-05-21T16:14:25.314Z,8.10
2023-05-21T16:17:13.393Z,9.43
2023-05-21T16:20:02.919Z,10.30
2023-05-21T16:22:51.088Z,8.37
2023-05-21T16:25:39.222Z,8.43
2023-05-21T16:28:27.678Z,8.98
2023-05-21T16:31:15.739Z,8.18
2023-05-21T16:34:03.760Z,11.00
2023-05-21T16:36:53.172Z,9.03
2023-05-21T16:39:41.233Z,7.18
2023-05-21T16:42:29.323Z,9.07
2023-05-21T16:45:20.606Z,12.05
2023-05-21T16:48:09.048Z,11.32
2023-05-21T16:50:57.086Z,7.60
2023-05-21T16:53:46.468Z,8.80
2023-05-21T16:56:34.676Z,9.43
2023-05-21T16:59:22.764Z,9.48
2023-05-21T17:02:13.796Z,11.30
2023-05-21T17:05:01.973Z,6.17
2023-05-21T17:07:50.597Z,10.15
2023-05-21T17:10:40.032Z,8.65
2023-05-21T17:13:28.100Z,9.70
2023-05-21T17:16:16.328Z,10.27
2023-05-21T17:19:04.606Z,9.97
2023-05-21T17:21:52.768Z,12.48
2023-05-21T17:24:40.964Z,10.80
2023-05-21T17:27:30.875Z,11.70
2023-05-21T17:30:19.055Z,8.75
2023-05-21T17:33:07.747Z,10.00
2023-05-21T17:35:56.952Z,9.13
2023-05-21T17:38:44.949Z,9.25
2023-05-21T17:41:33.027Z,11.25
2023-05-21T17:44:22.680Z,9.95
2023-05-21T17:47:10.949Z,9.70
2023-05-21T17:49:59.173Z,8.85
2023-05-21T17:52:47.502Z,12.93
2023-05-21T17:55:35.791Z,9.93
2023-05-21T17:58:24.010Z,11.35
2023-05-21T18:01:13.558Z,11.33
2023-05-21T18:04:01.876Z,11.77
2023-05-21T18:06:51.929Z,14.20
2023-05-21T18:09:40.042Z,9.73
2023-05-21T18:12:28.226Z,9.18
2023-05-21T18:15:16.962Z,10.17
2023-05-21T18:18:06.634Z,9.15
2023-05-21T18:20:55.016Z,9.02
2023-05-21T18:23:43.171Z,12.25
2023-05-21T18:26:31.221Z,8.52
2023-05-21T18:29:19.340Z,12.60
2023-05-21T18:32:08.133Z,11.50
2023-05-21T18:34:58.478Z,10.93
2023-05-21T18:37:48.560Z,12.95
2023-05-21T18:40:37.087Z,13.35
2023-05-21T18:43:25.434Z,12.27
2023-05-21T18:46:13.506Z,12.48
2023-05-21T18:49:01.637Z,13.25
2023-05-21T18:51:51.052Z,12.35
2023-05-21T18:54:39.004Z,17.25
2023-05-21T18:57:27.682Z,9.77
2023-05-21T19:00:16.091Z,13.65
2023-05-21T19:03:04.350Z,11.68
2023-05-21T19:05:52.517Z,11.52
2023-05-21T19:08:42.022Z,12.57
2023-05-21T19:11:34.292Z,11.33
2023-05-21T19:14:22.391Z,13.40
2023-05-21T19:17:10.551Z,15.13
2023-05-21T19:19:58.614Z,16.92
2023-05-21T19:22:46.684Z,12.65
2023-05-21T19:25:36.094Z,12.83
2023-05-21T19:28:24.126Z,15.13
2023-05-21T19:31:12.416Z,11.90
2023-05-21T19:34:00.908Z,15.75
2023-05-21T19:36:53.308Z,16.88
2023-05-21T19:39:43.331Z,13.37
2023-05-21T19:42:32.813Z,16.75
2023-05-21T19:45:21.446Z,14.43
2023-05-21T19:48:09.851Z,15.48
2023-05-21T19:50:57.957Z,14.05
2023-05-21T19:53:46.027Z,15.77
2023-05-21T19:56:34.335Z,17.77
2023-05-21T19:59:23.783Z,13.65
2023-05-21T20:02:15.081Z,13.88
2023-05-21T20:05:03.099Z,18.23
2023-05-21T20:07:51.138Z,15.97
2023-05-21T20:10:40.536Z,17.63
2023-05-21T20:13:28.698Z,15.95
2023-05-21T20:16:18.856Z,15.57
2023-05-21T20:19:07.023Z,21.33
2023-05-21T20:21:55.450Z,14.33
2023-05-21T20:24:43.650Z,15.90
2023-05-21T20:27:32.087Z,16.60
2023-05-21T20:30:20.803Z,17.58
2023-05-21T20:33:10.369Z,21.13
2023-05-21T20:35:59.021Z,20.63
2023-05-21T20:38:47.230Z,21.50
2023-05-21T20:41:37.319Z,21.27
2023-05-21T20:44:27.471Z,16.55
2023-05-21T20:47:15.711Z,21.45
2023-05-21T20:50:05.929Z,19.90
2023-05-21T20:52:54.074Z,22.83
2023-05-21T20:55:44.417Z,20.98
2023-05-21T20:58:33.606Z,19.95
2023-05-21T21:01:21.905Z,22.92
2023-05-21T21:04:10.080Z,21.43
2023-05-21T21:07:02.006Z,17.80
2023-05-21T21:09:50.376Z,23.08
2023-05-21T21:12:38.449Z,23.65
2023-05-21T21:15:26.640Z,19.35
2023-05-21T21:18:14.686Z,17.80
2023-05-21T21:21:02.813Z,22.88
2023-05-21T21:23:52.751Z,18.77
2023-05-21T21:26:40.901Z,18.02
2023-05-21T21:29:29.065Z,19.38
2023-05-21T21:32:17.248Z,18.27
2023-05-21T21:35:05.992Z,19.35
2023-05-21T21:37:54.094Z,18.95
2023-05-21T21:40:43.539Z,17.38
2023-05-21T21:43:31.621Z,21.67
2023-05-21T21:46:19.632Z,18.83
2023-05-21T21:49:07.789Z,23.02
2023-05-21T21:51:57.786Z,18.98
2023-05-21T21:54:45.931Z,21.98
2023-05-21T21:57:35.638Z,23.23
2023-05-21T22:00:26.695Z,20.20
2023-05-21T22:03:15.134Z,21.98
2023-05-21T22:06:03.778Z,23.20
2023-05-21T22:08:51.908Z,25.65
2023-05-21T22:11:40.481Z,21.52
2023-05-21T22:14:30.035Z,21.33
2023-05-21T22:17:18.151Z,23.70
2023-05-21T22:20:07.417Z,24.10
2023-05-21T22:22:55.744Z,25.60
2023-05-21T22:25:43.841Z,25.63
2023-05-21T22:28:31.929Z,23.53
2023-05-21T22:31:21.713Z,24.15
2023-05-21T22:34:10.036Z,21.02
2023-05-21T22:36:58.217Z,25.48
2023-05-21T22:39:46.318Z,22.50
2023-05-21T22:42:35.467Z,22.90
2023-05-21T22:45:23.729Z,21.27
2023-05-21T22:48:14.421Z,27.15
2023-05-21T22:51:04.462Z,21.27
2023-05-21T22:53:52.778Z,24.67
2023-05-21T22:56:40.936Z,23.77
2023-05-21T22:59:29.685Z,24.13
2023-05-21T23:02:18.048Z,25.45
2023-05-21T23:05:09.499Z,25.50
2023-05-21T23:07:57.813Z,23.80
2023-05-21T23:10:45.974Z,28.60
2023-05-21T23:13:34.382Z,25.38
2023-05-21T23:16:24.112Z,25.17
2023-05-21T23:19:12.887Z,25.45
2023-05-21T23:22:02.847Z,25.10
2023-05-21T23:24:51.457Z,23.00
2023-05-21T23:27:39.937Z,27.15
2023-05-21T23:30:28.332Z,27.33
2023-05-21T23:33:16.465Z,26.83
2023-05-21T23:36:05.126Z,28.63
2023-05-21T23:38:54.531Z,32.73
2023-05-21T23:41:42.949Z,26.88
2023-05-21T23:44:32.111Z,29.08
2023-05-21T23:47:20.361Z,28.58
2023-05-21T23:50:09.597Z,29.63
2023-05-21T23:52:57.852Z,30.40
2023-05-21T23:55:47.694Z,35.03
2023-05-21T23:58:36.150Z,35.85
